Airfield :
LOGIN :

Register | Disclaimer

   EN    FR    IT 

 










Legend :    VFR   Marginal VFR   IFR   Intensive IFR   Very Intensive IFR
Visi :
Ceiling :
>= 8 km
>= 3000ft
5 to 8 km
1000 to 3000 ft
1500m to 5 km
500 to 1000 ft
800 to 1500m
200 to 500 ft
< 800m
< 200 ft
Symbols :   Thunderstorms  Fog  Heavy snow  Heavy precipitations  Wind > 20 kt
SIGMETs :     Misc.  Thunderstorms  Icing  Turbulence  Mountain Waves  Volcanic Ashes







- Airport Elevation : 126 ft
- IATA code : TIA


LATI - Rinas Mother Teresa Arpt - Tirana

CURRENT METAR :
  • 211750Z 00000KT CAVOK 23/20 Q1016 NOSIG

EXPIRED METARs :
  • 211720Z VRB02KT CAVOK 23/20 Q1016 NOSIG
  • 211650Z 34004KT CAVOK 24/19 Q1016 NOSIG
  • 211620Z 32004KT CAVOK 24/18 Q1016 NOSIG
  • 211550Z 33005KT CAVOK 25/17 Q1016 NOSIG
  • 211520Z 31007KT CAVOK 27/17 Q1016 NOSIG

TAF TAF LATI
Valid from the 21 at 18:00 until the 22 at 18:00 UTC


211700Z 2118/2218 VRB03KT CAVOK
TEMPO 2211/2217 33010KT
No reported NOTAMs for that airfield.



MET'MAP, your aeronautical weather chart ! - Copyright ORBIFLY December 2007 - Disclaimer

ORBIFLY MET'MAP TEAM :

Programming & Development : Alexandra Zaïnal
Concept & Development : Baudouin d'Aumeries
Co-Development & Prog : Marc-Olivier Méhu
Technical & hardware support : Manuel Goepfert

Contact : metmap@orbifly.com




SOURCES & CREDITS :

   NOAA